sensor_id;sensor_type;location;lat;lon;timestamp;pressure;altitude;pressure_sealevel;temperature;humidity
47716;BME280;33476;50.984;3.538;2023-02-12T00:00:33;103912.00;;;10.43;69.67
47716;BME280;33476;50.984;3.538;2023-02-12T00:02:58;103905.00;;;10.41;69.73
47716;BME280;33476;50.984;3.538;2023-02-12T00:05:24;103903.25;;;10.40;69.75
47716;BME280;33476;50.984;3.538;2023-02-12T00:07:49;103909.34;;;10.41;69.74
47716;BME280;33476;50.984;3.538;2023-02-12T00:10:14;103917.19;;;10.39;69.75
47716;BME280;33476;50.984;3.538;2023-02-12T00:12:40;103913.72;;;10.37;69.80
47716;BME280;33476;50.984;3.538;2023-02-12T00:15:05;103909.38;;;10.38;69.66
47716;BME280;33476;50.984;3.538;2023-02-12T00:17:31;103909.38;;;10.38;69.59
47716;BME280;33476;50.984;3.538;2023-02-12T00:19:56;103913.72;;;10.34;69.72
47716;BME280;33476;50.984;3.538;2023-02-12T00:22:21;103911.09;;;10.37;69.57
47716;BME280;33476;50.984;3.538;2023-02-12T00:24:47;103915.47;;;10.38;69.44
47716;BME280;33476;50.984;3.538;2023-02-12T00:27:12;103910.22;;;10.38;69.53
47716;BME280;33476;50.984;3.538;2023-02-12T00:29:37;103911.97;;;10.39;69.42
47716;BME280;33476;50.984;3.538;2023-02-12T00:32:03;103914.59;;;10.38;69.10
47716;BME280;33476;50.984;3.538;2023-02-12T00:34:28;103914.59;;;10.38;69.31
47716;BME280;33476;50.984;3.538;2023-02-12T00:36:53;103918.06;;;10.37;69.20
47716;BME280;33476;50.984;3.538;2023-02-12T00:39:19;103912.84;;;10.35;69.26
47716;BME280;33476;50.984;3.538;2023-02-12T00:41:44;103914.59;;;10.36;69.23
47716;BME280;33476;50.984;3.538;2023-02-12T00:44:09;103916.34;;;10.37;69.10
47716;BME280;33476;50.984;3.538;2023-02-12T00:46:34;103919.81;;;10.36;69.07
47716;BME280;33476;50.984;3.538;2023-02-12T00:49:00;103914.59;;;10.36;69.05
47716;BME280;33476;50.984;3.538;2023-02-12T00:51:25;103911.13;;;10.34;69.08
47716;BME280;33476;50.984;3.538;2023-02-12T00:53:51;103909.34;;;10.33;69.01
47716;BME280;33476;50.984;3.538;2023-02-12T00:56:16;103913.69;;;10.33;68.92
47716;BME280;33476;50.984;3.538;2023-02-12T00:58:41;103910.22;;;10.29;68.84
47716;BME280;33476;50.984;3.538;2023-02-12T01:01:07;103921.53;;;10.30;68.74
47716;BME280;33476;50.984;3.538;2023-02-12T01:03:33;103918.06;;;10.31;68.98
47716;BME280;33476;50.984;3.538;2023-02-12T01:05:58;103914.56;;;10.32;68.88
47716;BME280;33476;50.984;3.538;2023-02-12T01:08:24;103918.03;;;10.32;68.62
47716;BME280;33476;50.984;3.538;2023-02-12T01:10:58;103914.56;;;10.27;68.58
47716;BME280;33476;50.984;3.538;2023-02-12T01:13:24;103910.22;;;10.31;68.31
47716;BME280;33476;50.984;3.538;2023-02-12T01:16:03;103914.56;;;10.27;68.47
47716;BME280;33476;50.984;3.538;2023-02-12T01:18:32;103919.78;;;10.30;67.94
47716;BME280;33476;50.984;3.538;2023-02-12T01:20:57;103918.91;;;10.31;67.57
47716;BME280;33476;50.984;3.538;2023-02-12T01:23:23;103913.69;;;10.33;67.66
47716;BME280;33476;50.984;3.538;2023-02-12T01:25:48;103915.47;;;10.35;67.28
47716;BME280;33476;50.984;3.538;2023-02-12T01:28:14;103915.47;;;10.35;67.09
47716;BME280;33476;50.984;3.538;2023-02-12T01:30:39;103906.75;;;10.36;66.99
47716;BME280;33476;50.984;3.538;2023-02-12T01:33:04;103918.06;;;10.38;66.94
47716;BME280;33476;50.984;3.538;2023-02-12T01:35:29;103918.94;;;10.37;66.91
47716;BME280;33476;50.984;3.538;2023-02-12T01:37:55;103918.06;;;10.35;66.74
47716;BME280;33476;50.984;3.538;2023-02-12T01:40:20;103912.81;;;10.32;66.80
47716;BME280;33476;50.984;3.538;2023-02-12T01:42:46;103914.56;;;10.33;66.62
47716;BME280;33476;50.984;3.538;2023-02-12T01:47:41;103908.50;;;10.34;66.39
47716;BME280;33476;50.984;3.538;2023-02-12T01:50:09;103912.81;;;10.32;66.47
47716;BME280;33476;50.984;3.538;2023-02-12T01:52:37;103916.31;;;10.30;66.77
47716;BME280;33476;50.984;3.538;2023-02-12T01:55:06;103913.69;;;10.30;66.44
47716;BME280;33476;50.984;3.538;2023-02-12T01:57:36;103915.44;;;10.26;66.77
47716;BME280;33476;50.984;3.538;2023-02-12T02:00:06;103911.09;;;10.27;66.51
47716;BME280;33476;50.984;3.538;2023-02-12T02:02:32;103911.94;;;10.26;66.79
47716;BME280;33476;50.984;3.538;2023-02-12T02:05:01;103913.66;;;10.24;66.67
47716;BME280;33476;50.984;3.538;2023-02-12T02:07:27;103909.31;;;10.24;66.48
47716;BME280;33476;50.984;3.538;2023-02-12T02:09:53;103908.44;;;10.24;66.78
47716;BME280;33476;50.984;3.538;2023-02-12T02:12:19;103911.94;;;10.23;66.63
47716;BME280;33476;50.984;3.538;2023-02-12T02:15:04;103904.94;;;10.22;66.62
47716;BME280;33476;50.984;3.538;2023-02-12T02:31:46;103904.06;;;10.20;66.53
47716;BME280;33476;50.984;3.538;2023-02-12T02:34:24;103907.56;;;10.19;66.11
47716;BME280;33476;50.984;3.538;2023-02-12T02:37:02;103904.91;;;10.17;66.64
47716;BME280;33476;50.984;3.538;2023-02-12T02:39:40;103904.03;;;10.17;66.45
47716;BME280;33476;50.984;3.538;2023-02-12T02:42:16;103902.31;;;10.19;66.25
47716;BME280;33476;50.984;3.538;2023-02-12T02:44:49;103897.06;;;10.17;66.28
47716;BME280;33476;50.984;3.538;2023-02-12T02:47:20;103910.13;;;10.17;65.40
47716;BME280;33476;50.984;3.538;2023-02-12T02:49:52;103900.63;;;10.31;65.31
47716;BME280;33476;50.984;3.538;2023-02-12T02:52:25;103898.03;;;10.33;64.37
47716;BME280;33476;50.984;3.538;2023-02-12T02:55:00;103903.25;;;10.31;64.15
47716;BME280;33476;50.984;3.538;2023-02-12T02:57:33;103901.50;;;10.32;64.20
47716;BME280;33476;50.984;3.538;2023-02-12T03:00:19;103896.28;;;10.27;64.20
47716;BME280;33476;50.984;3.538;2023-02-12T03:02:54;103896.25;;;10.26;64.26
47716;BME280;33476;50.984;3.538;2023-02-12T03:05:27;103900.63;;;10.27;64.33
47716;BME280;33476;50.984;3.538;2023-02-12T03:08:07;103899.75;;;10.23;64.88
47716;BME280;33476;50.984;3.538;2023-02-12T03:10:38;103893.69;;;10.27;64.73
47716;BME280;33476;50.984;3.538;2023-02-12T03:13:12;103890.16;;;10.22;64.77
47716;BME280;33476;50.984;3.538;2023-02-12T03:15:49;103893.63;;;10.20;65.01
47716;BME280;33476;50.984;3.538;2023-02-12T03:18:20;103899.72;;;10.19;65.10
47716;BME280;33476;50.984;3.538;2023-02-12T03:20:52;103901.44;;;10.18;65.24
47716;BME280;33476;50.984;3.538;2023-02-12T03:23:26;103891.84;;;10.16;65.17
47716;BME280;33476;50.984;3.538;2023-02-12T03:26:15;103893.59;;;10.17;64.99
47716;BME280;33476;50.984;3.538;2023-02-12T03:28:42;103891.00;;;10.20;64.73
47716;BME280;33476;50.984;3.538;2023-02-12T03:31:16;103900.59;;;10.19;64.89
47716;BME280;33476;50.984;3.538;2023-02-12T03:37:07;103903.16;;;10.14;64.83
47716;BME280;33476;50.984;3.538;2023-02-12T03:42:13;103892.72;;;10.13;64.95
47716;BME280;33476;50.984;3.538;2023-02-12T03:44:48;103891.84;;;10.17;64.46
47716;BME280;33476;50.984;3.538;2023-02-12T03:50:10;103897.06;;;10.14;64.27
47716;BME280;33476;50.984;3.538;2023-02-12T03:52:33;103896.22;;;10.20;64.22
47716;BME280;33476;50.984;3.538;2023-02-12T03:54:59;103896.19;;;10.17;64.18
47716;BME280;33476;50.984;3.538;2023-02-12T03:57:28;103890.97;;;10.15;63.97
47716;BME280;33476;50.984;3.538;2023-02-12T03:59:56;103895.34;;;10.14;64.27
47716;BME280;33476;50.984;3.538;2023-02-12T04:02:23;103895.34;;;10.13;64.25
47716;BME280;33476;50.984;3.538;2023-02-12T04:04:50;103891.84;;;10.09;64.50
47716;BME280;33476;50.984;3.538;2023-02-12T04:07:16;103889.25;;;10.09;64.33
47716;BME280;33476;50.984;3.538;2023-02-12T04:09:42;103890.97;;;10.10;64.53
47716;BME280;33476;50.984;3.538;2023-02-12T04:18:07;103906.63;;;10.06;64.75
47716;BME280;33476;50.984;3.538;2023-02-12T04:20:40;103900.53;;;10.07;64.84
47716;BME280;33476;50.984;3.538;2023-02-12T04:23:16;103899.66;;;10.05;64.84
47716;BME280;33476;50.984;3.538;2023-02-12T04:26:32;103903.13;;;10.05;64.61
47716;BME280;33476;50.984;3.538;2023-02-12T04:31:32;103905.75;;;10.04;64.71
47716;BME280;33476;50.984;3.538;2023-02-12T04:36:31;103906.63;;;10.01;64.78
47716;BME280;33476;50.984;3.538;2023-02-12T04:39:09;103908.34;;;9.99;64.93
47716;BME280;33476;50.984;3.538;2023-02-12T04:41:37;103908.34;;;10.01;64.52
47716;BME280;33476;50.984;3.538;2023-02-12T04:44:14;103903.97;;;9.97;64.84
47716;BME280;33476;50.984;3.538;2023-02-12T04:46:40;103903.09;;;9.99;64.54
47716;BME280;33476;50.984;3.538;2023-02-12T04:49:05;103901.38;;;9.98;64.63
47716;BME280;33476;50.984;3.538;2023-02-12T04:51:31;103905.72;;;9.96;64.63
47716;BME280;33476;50.984;3.538;2023-02-12T04:53:56;103916.16;;;9.96;64.84
47716;BME280;33476;50.984;3.538;2023-02-12T04:56:21;103915.28;;;9.96;64.56
47716;BME280;33476;50.984;3.538;2023-02-12T04:58:47;103915.28;;;9.96;64.22
47716;BME280;33476;50.984;3.538;2023-02-12T05:01:12;103909.19;;;9.97;64.37
47716;BME280;33476;50.984;3.538;2023-02-12T05:03:37;103910.06;;;9.96;64.58
47716;BME280;33476;50.984;3.538;2023-02-12T05:06:04;103910.06;;;9.94;64.48
47716;BME280;33476;50.984;3.538;2023-02-12T05:08:30;103908.34;;;9.93;64.49
47716;BME280;33476;50.984;3.538;2023-02-12T05:10:56;103910.91;;;9.92;64.69
47716;BME280;33476;50.984;3.538;2023-02-12T05:13:21;103910.03;;;9.91;64.47
47716;BME280;33476;50.984;3.538;2023-02-12T05:15:46;103910.03;;;9.91;64.27
47716;BME280;33476;50.984;3.538;2023-02-12T05:18:11;103920.47;;;9.90;64.17
47716;BME280;33476;50.984;3.538;2023-02-12T05:20:37;103918.75;;;9.90;64.08
47716;BME280;33476;50.984;3.538;2023-02-12T05:23:02;103907.47;;;9.94;63.52
47716;BME280;33476;50.984;3.538;2023-02-12T05:25:27;103909.19;;;9.94;63.76
47716;BME280;33476;50.984;3.538;2023-02-12T05:27:53;103908.34;;;9.96;63.35
47716;BME280;33476;50.984;3.538;2023-02-12T05:30:20;103897.88;;;9.95;63.60
47716;BME280;33476;50.984;3.538;2023-02-12T05:32:46;103905.72;;;9.95;63.54
47716;BME280;33476;50.984;3.538;2023-02-12T05:35:11;103904.84;;;9.94;63.30
47716;BME280;33476;50.984;3.538;2023-02-12T05:37:36;103907.47;;;9.96;63.37
47716;BME280;33476;50.984;3.538;2023-02-12T05:40:06;103902.22;;;9.93;63.52
47716;BME280;33476;50.984;3.538;2023-02-12T05:42:32;103907.50;;;10.05;63.09
47716;BME280;33476;50.984;3.538;2023-02-12T05:44:58;103912.72;;;10.02;62.89
47716;BME280;33476;50.984;3.538;2023-02-12T05:47:23;103911.81;;;9.98;62.99
47716;BME280;33476;50.984;3.538;2023-02-12T05:49:48;103915.28;;;9.96;63.01
47716;BME280;33476;50.984;3.538;2023-02-12T05:52:14;103913.56;;;9.93;63.36
47716;BME280;33476;50.984;3.538;2023-02-12T05:54:39;103924.84;;;9.91;63.19
47716;BME280;33476;50.984;3.538;2023-02-12T05:57:05;103923.09;;;9.90;63.45
47716;BME280;33476;50.984;3.538;2023-02-12T05:59:31;103924.84;;;9.91;63.51
47716;BME280;33476;50.984;3.538;2023-02-12T06:01:57;103923.97;;;9.87;63.54
47716;BME280;33476;50.984;3.538;2023-02-12T06:04:27;103924.78;;;9.84;63.41
47716;BME280;33476;50.984;3.538;2023-02-12T06:06:53;103919.56;;;9.84;63.61
47716;BME280;33476;50.984;3.538;2023-02-12T06:09:20;103912.63;;;9.83;63.11
47716;BME280;33476;50.984;3.538;2023-02-12T06:11:46;103914.34;;;9.83;63.33
47716;BME280;33476;50.984;3.538;2023-02-12T06:14:14;103914.34;;;9.81;63.38
47716;BME280;33476;50.984;3.538;2023-02-12T06:16:39;103907.41;;;9.82;63.50
47716;BME280;33476;50.984;3.538;2023-02-12T06:19:05;103906.53;;;9.78;63.20
47716;BME280;33476;50.984;3.538;2023-02-12T06:21:31;103906.53;;;9.77;62.70
47716;BME280;33476;50.984;3.538;2023-02-12T06:23:57;103911.75;;;9.81;62.66
47716;BME280;33476;50.984;3.538;2023-02-12T06:26:22;103909.13;;;9.84;62.45
47716;BME280;33476;50.984;3.538;2023-02-12T06:28:48;103915.25;;;9.87;62.58
47716;BME280;33476;50.984;3.538;2023-02-12T06:31:25;103917.88;;;9.85;62.50
47716;BME280;33476;50.984;3.538;2023-02-12T06:33:52;103914.38;;;9.89;62.73
47716;BME280;33476;50.984;3.538;2023-02-12T06:36:18;103922.22;;;9.86;62.86
47716;BME280;33476;50.984;3.538;2023-02-12T06:38:44;103917.00;;;9.86;62.65
47716;BME280;33476;50.984;3.538;2023-02-12T06:41:10;103915.25;;;9.85;62.62
47716;BME280;33476;50.984;3.538;2023-02-12T06:43:35;103914.34;;;9.84;62.85
47716;BME280;33476;50.984;3.538;2023-02-12T06:46:01;103919.56;;;9.84;62.75
47716;BME280;33476;50.984;3.538;2023-02-12T06:48:27;103920.44;;;9.82;62.71
47716;BME280;33476;50.984;3.538;2023-02-12T06:50:52;103916.09;;;9.79;62.43
47716;BME280;33476;50.984;3.538;2023-02-12T06:53:18;103919.56;;;9.80;61.92
47716;BME280;33476;50.984;3.538;2023-02-12T06:55:43;103921.31;;;9.82;61.46
47716;BME280;33476;50.984;3.538;2023-02-12T06:58:08;103922.19;;;9.80;61.33
47716;BME280;33476;50.984;3.538;2023-02-12T07:00:34;103923.94;;;9.82;61.39
47716;BME280;33476;50.984;3.538;2023-02-12T07:02:59;103928.31;;;9.85;61.50
47716;BME280;33476;50.984;3.538;2023-02-12T07:05:25;103937.88;;;9.88;61.35
47716;BME280;33476;50.984;3.538;2023-02-12T07:07:50;103930.94;;;9.90;61.03
47716;BME280;33476;50.984;3.538;2023-02-12T07:10:16;103935.28;;;9.88;60.41
47716;BME280;33476;50.984;3.538;2023-02-12T07:12:42;103936.16;;;9.87;60.79
47716;BME280;33476;50.984;3.538;2023-02-12T07:15:08;103947.47;;;9.87;60.63
47716;BME280;33476;50.984;3.538;2023-02-12T07:17:33;103954.41;;;9.88;60.67
47716;BME280;33476;50.984;3.538;2023-02-12T07:19:58;103953.59;;;9.94;60.87
47716;BME280;33476;50.984;3.538;2023-02-12T07:22:24;103957.94;;;9.95;60.25
47716;BME280;33476;50.984;3.538;2023-02-12T07:24:49;103953.59;;;9.94;60.65
47716;BME280;33476;50.984;3.538;2023-02-12T07:27:15;103952.72;;;9.95;60.64
47716;BME280;33476;50.984;3.538;2023-02-12T07:29:41;103966.66;;;9.95;60.01
47716;BME280;33476;50.984;3.538;2023-02-12T07:32:06;103966.66;;;9.94;59.89
47716;BME280;33476;50.984;3.538;2023-02-12T07:34:32;103977.03;;;9.88;59.86
47716;BME280;33476;50.984;3.538;2023-02-12T07:36:57;103974.44;;;9.89;60.04
47716;BME280;33476;50.984;3.538;2023-02-12T07:39:22;103979.69;;;9.94;60.02
47716;BME280;33476;50.984;3.538;2023-02-12T07:41:48;103985.78;;;9.96;60.18
47716;BME280;33476;50.984;3.538;2023-02-12T07:44:13;103981.44;;;9.95;59.84
47716;BME280;33476;50.984;3.538;2023-02-12T07:46:44;103977.09;;;9.95;59.86
47716;BME280;33476;50.984;3.538;2023-02-12T07:49:12;103980.56;;;9.97;59.89
47716;BME280;33476;50.984;3.538;2023-02-12T07:51:38;103974.47;;;9.98;59.63
47716;BME280;33476;50.984;3.538;2023-02-12T07:54:04;103979.72;;;10.00;59.76
47716;BME280;33476;50.984;3.538;2023-02-12T07:56:32;103977.97;;;9.99;59.79
47716;BME280;33476;50.984;3.538;2023-02-12T07:59:04;103990.16;;;10.00;59.71
47716;BME280;33476;50.984;3.538;2023-02-12T08:01:38;103984.06;;;9.99;59.61
47716;BME280;33476;50.984;3.538;2023-02-12T08:04:06;103989.31;;;10.04;59.28
47716;BME280;33476;50.984;3.538;2023-02-12T08:06:34;103984.09;;;10.04;59.18
47716;BME280;33476;50.984;3.538;2023-02-12T08:09:02;103984.94;;;10.00;58.99
47716;BME280;33476;50.984;3.538;2023-02-12T08:11:28;103984.94;;;10.00;59.04
47716;BME280;33476;50.984;3.538;2023-02-12T08:13:56;103991.88;;;9.99;59.07
47716;BME280;33476;50.984;3.538;2023-02-12T08:16:24;103997.16;;;10.02;59.04
47716;BME280;33476;50.984;3.538;2023-02-12T08:18:50;103995.41;;;10.03;59.16
47716;BME280;33476;50.984;3.538;2023-02-12T08:21:21;103985.81;;;10.00;58.91
47716;BME280;33476;50.984;3.538;2023-02-12T08:23:47;103990.16;;;10.00;58.62
47716;BME280;33476;50.984;3.538;2023-02-12T08:26:23;103994.47;;;9.92;58.70
47716;BME280;33476;50.984;3.538;2023-02-12T08:28:52;103995.34;;;9.92;58.47
47716;BME280;33476;50.984;3.538;2023-02-12T08:31:25;103998.81;;;9.90;58.86
47716;BME280;33476;50.984;3.538;2023-02-12T08:33:52;103995.34;;;9.92;58.43
47716;BME280;33476;50.984;3.538;2023-02-12T08:36:20;104000.56;;;9.91;58.27
47716;BME280;33476;50.984;3.538;2023-02-12T08:38:46;103997.97;;;9.94;58.06
47716;BME280;33476;50.984;3.538;2023-02-12T08:41:15;104004.03;;;9.93;58.28
47716;BME280;33476;50.984;3.538;2023-02-12T08:43:41;104005.78;;;9.92;58.21
47716;BME280;33476;50.984;3.538;2023-02-12T08:46:10;104004.94;;;9.93;58.28
47716;BME280;33476;50.984;3.538;2023-02-12T08:48:35;104006.69;;;9.99;58.22
47716;BME280;33476;50.984;3.538;2023-02-12T08:51:13;104013.66;;;9.97;57.58
47716;BME280;33476;50.984;3.538;2023-02-12T08:53:39;104013.66;;;9.95;57.95
47716;BME280;33476;50.984;3.538;2023-02-12T08:56:06;104011.91;;;9.97;57.81
47716;BME280;33476;50.984;3.538;2023-02-12T08:58:33;104004.94;;;10.01;57.58
47716;BME280;33476;50.984;3.538;2023-02-12T09:00:58;104005.00;;;10.05;57.46
47716;BME280;33476;50.984;3.538;2023-02-12T09:03:23;104010.25;;;10.10;57.66
47716;BME280;33476;50.984;3.538;2023-02-12T09:05:49;103999.81;;;10.18;57.35
47716;BME280;33476;50.984;3.538;2023-02-12T09:08:14;104003.28;;;10.15;57.06
47716;BME280;33476;50.984;3.538;2023-02-12T09:10:41;104000.72;;;10.20;57.45
47716;BME280;33476;50.984;3.538;2023-02-12T09:13:07;103995.53;;;10.26;57.36
47716;BME280;33476;50.984;3.538;2023-02-12T09:15:51;104003.28;;;10.17;57.14
47716;BME280;33476;50.984;3.538;2023-02-12T09:18:16;103998.09;;;10.18;56.85
47716;BME280;33476;50.984;3.538;2023-02-12T09:20:43;103998.13;;;10.23;56.89
47716;BME280;33476;50.984;3.538;2023-02-12T09:23:13;103995.50;;;10.18;56.57
47716;BME280;33476;50.984;3.538;2023-02-12T09:25:43;103995.47;;;10.15;56.58
47716;BME280;33476;50.984;3.538;2023-02-12T09:28:09;104004.16;;;10.17;56.89
47716;BME280;33476;50.984;3.538;2023-02-12T09:30:37;104000.69;;;10.17;56.78
47716;BME280;33476;50.984;3.538;2023-02-12T09:33:03;103996.34;;;10.19;56.71
47716;BME280;33476;50.984;3.538;2023-02-12T09:35:29;103998.97;;;10.20;56.51
47716;BME280;33476;50.984;3.538;2023-02-12T09:37:54;103999.91;;;10.28;56.33
47716;BME280;33476;50.984;3.538;2023-02-12T09:40:21;103999.03;;;10.29;56.22
47716;BME280;33476;50.984;3.538;2023-02-12T09:51:06;104001.69;;;10.37;54.91
47716;BME280;33476;50.984;3.538;2023-02-12T09:53:36;104004.28;;;10.40;54.87
47716;BME280;33476;50.984;3.538;2023-02-12T09:56:08;104005.19;;;10.45;54.55
47716;BME280;33476;50.984;3.538;2023-02-12T09:58:40;103997.34;;;10.50;54.27
47716;BME280;33476;50.984;3.538;2023-02-12T10:01:16;103997.34;;;10.50;54.03
47716;BME280;33476;50.984;3.538;2023-02-12T10:03:43;103994.78;;;10.51;53.90
47716;BME280;33476;50.984;3.538;2023-02-12T10:06:16;103993.91;;;10.55;54.04
47716;BME280;33476;50.984;3.538;2023-02-12T10:11:34;104004.41;;;10.71;53.94
47716;BME280;33476;50.984;3.538;2023-02-12T10:22:25;104000.03;;;10.76;53.46
47716;BME280;33476;50.984;3.538;2023-02-12T10:25:05;104006.19;;;10.85;53.40
47716;BME280;33476;50.984;3.538;2023-02-12T10:27:39;104004.44;;;10.89;53.48
47716;BME280;33476;50.984;3.538;2023-02-12T10:33:16;104007.91;;;10.82;53.07
47716;BME280;33476;50.984;3.538;2023-02-12T10:35:50;104007.91;;;10.80;53.20
47716;BME280;33476;50.984;3.538;2023-02-12T10:38:24;104002.69;;;10.79;53.16
47716;BME280;33476;50.984;3.538;2023-02-12T10:40:50;104008.75;;;10.82;52.92
47716;BME280;33476;50.984;3.538;2023-02-12T10:43:18;103994.84;;;10.79;52.88
47716;BME280;33476;50.984;3.538;2023-02-12T10:45:44;104002.69;;;10.85;52.98
47716;BME280;33476;50.984;3.538;2023-02-12T10:48:13;104002.72;;;10.92;52.89
47716;BME280;33476;50.984;3.538;2023-02-12T10:50:47;104005.31;;;10.98;52.80
47716;BME280;33476;50.984;3.538;2023-02-12T10:53:22;104000.06;;;10.89;52.70
47716;BME280;33476;50.984;3.538;2023-02-12T10:55:48;103999.19;;;10.89;52.74
47716;BME280;33476;50.984;3.538;2023-02-12T10:58:20;103997.47;;;10.94;53.17
47716;BME280;33476;50.984;3.538;2023-02-12T11:00:46;103997.47;;;10.97;52.63
47716;BME280;33476;50.984;3.538;2023-02-12T11:03:21;103993.09;;;10.96;52.77
47716;BME280;33476;50.984;3.538;2023-02-12T11:05:47;103996.59;;;11.00;52.58
47716;BME280;33476;50.984;3.538;2023-02-12T11:08:29;103993.09;;;10.99;52.65
47716;BME280;33476;50.984;3.538;2023-02-12T11:11:11;103991.38;;;11.04;52.67
47716;BME280;33476;50.984;3.538;2023-02-12T11:13:40;103990.50;;;11.07;52.53
47716;BME280;33476;50.984;3.538;2023-02-12T11:16:09;103984.41;;;11.05;52.73
47716;BME280;33476;50.984;3.538;2023-02-12T11:18:35;103985.28;;;11.05;52.50
47716;BME280;33476;50.984;3.538;2023-02-12T11:21:04;103985.28;;;11.05;52.21
47716;BME280;33476;50.984;3.538;2023-02-12T11:23:38;103978.28;;;11.09;52.51
47716;BME280;33476;50.984;3.538;2023-02-12T11:31:23;103975.69;;;11.22;52.39
47716;BME280;33476;50.984;3.538;2023-02-12T11:34:07;103975.66;;;11.15;52.25
47716;BME280;33476;50.984;3.538;2023-02-12T11:36:39;103966.97;;;11.11;52.24
47716;BME280;33476;50.984;3.538;2023-02-12T11:39:07;103973.94;;;11.12;52.43
47716;BME280;33476;50.984;3.538;2023-02-12T11:41:42;103974.81;;;11.14;52.33
47716;BME280;33476;50.984;3.538;2023-02-12T11:44:12;103963.47;;;11.21;52.41
47716;BME280;33476;50.984;3.538;2023-02-12T11:46:46;103965.22;;;11.25;52.24
47716;BME280;33476;50.984;3.538;2023-02-12T11:49:20;103965.22;;;11.27;52.05
47716;BME280;33476;50.984;3.538;2023-02-12T11:51:48;103964.34;;;11.27;51.90
47716;BME280;33476;50.984;3.538;2023-02-12T11:54:23;103960.88;;;11.26;52.08
47716;BME280;33476;50.984;3.538;2023-02-12T11:56:49;103966.09;;;11.34;51.72
47716;BME280;33476;50.984;3.538;2023-02-12T11:59:30;103951.25;;;11.30;51.69
47716;BME280;33476;50.984;3.538;2023-02-12T12:01:55;103951.25;;;11.43;51.97
47716;BME280;33476;50.984;3.538;2023-02-12T12:04:26;103948.63;;;11.45;51.76
47716;BME280;33476;50.984;3.538;2023-02-12T12:09:28;103941.66;;;11.44;51.48
47716;BME280;33476;50.984;3.538;2023-02-12T12:12:09;103938.16;;;11.40;51.82
47716;BME280;33476;50.984;3.538;2023-02-12T12:14:44;103934.69;;;11.43;51.66
47716;BME280;33476;50.984;3.538;2023-02-12T12:17:41;103940.75;;;11.42;51.70
47716;BME280;33476;50.984;3.538;2023-02-12T12:20:34;103928.56;;;11.36;51.41
47716;BME280;33476;50.984;3.538;2023-02-12T12:23:02;103924.22;;;11.37;51.49
47716;BME280;33476;50.984;3.538;2023-02-12T12:25:42;103922.47;;;11.28;51.81
47716;BME280;33476;50.984;3.538;2023-02-12T12:28:31;103917.22;;;11.31;51.77
47716;BME280;33476;50.984;3.538;2023-02-12T12:31:39;103913.75;;;11.37;51.59
47716;BME280;33476;50.984;3.538;2023-02-12T12:34:11;103909.34;;;11.40;51.30
47716;BME280;33476;50.984;3.538;2023-02-12T12:53:35;103882.28;;;11.57;50.84
47716;BME280;33476;50.984;3.538;2023-02-12T13:14:30;103877.03;;;11.60;51.00
47716;BME280;33476;50.984;3.538;2023-02-12T13:17:04;103870.88;;;11.73;50.70
47716;BME280;33476;50.984;3.538;2023-02-12T13:19:40;103866.50;;;11.73;50.74
47716;BME280;33476;50.984;3.538;2023-02-12T13:25:34;103863.03;;;11.70;50.93
47716;BME280;33476;50.984;3.538;2023-02-12T13:28:05;103862.19;;;11.63;50.82
47716;BME280;33476;50.984;3.538;2023-02-12T13:30:51;103862.22;;;11.49;51.12
47716;BME280;33476;50.984;3.538;2023-02-12T13:33:27;103857.00;;;11.48;50.70
47716;BME280;33476;50.984;3.538;2023-02-12T13:35:59;103852.63;;;11.47;50.76
47716;BME280;33476;50.984;3.538;2023-02-12T13:38:28;103850.03;;;11.51;50.53
47716;BME280;33476;50.984;3.538;2023-02-12T13:41:01;103850.00;;;11.53;50.48
47716;BME280;33476;50.984;3.538;2023-02-12T13:46:32;103847.38;;;11.61;50.28
47716;BME280;33476;50.984;3.538;2023-02-12T13:52:05;103837.75;;;11.64;50.40
47716;BME280;33476;50.984;3.538;2023-02-12T13:54:43;103844.72;;;11.67;50.27
47716;BME280;33476;50.984;3.538;2023-02-12T13:57:15;103846.47;;;11.65;49.92
47716;BME280;33476;50.984;3.538;2023-02-12T13:59:43;103844.72;;;11.67;49.87
47716;BME280;33476;50.984;3.538;2023-02-12T14:05:01;103842.06;;;11.77;50.35
47716;BME280;33476;50.984;3.538;2023-02-12T14:07:51;103834.25;;;11.68;50.00
47716;BME280;33476;50.984;3.538;2023-02-12T14:12:45;103830.81;;;11.54;50.30
47716;BME280;33476;50.984;3.538;2023-02-12T14:18:04;103835.19;;;11.46;50.71
47716;BME280;33476;50.984;3.538;2023-02-12T14:20:31;103826.44;;;11.48;50.56
47716;BME280;33476;50.984;3.538;2023-02-12T14:26:05;103826.50;;;11.36;50.74
47716;BME280;33476;50.984;3.538;2023-02-12T14:33:42;103827.41;;;11.35;51.04
47716;BME280;33476;50.984;3.538;2023-02-12T14:44:42;103818.66;;;11.33;51.16
47716;BME280;33476;50.984;3.538;2023-02-12T14:47:58;103823.91;;;11.30;51.20
47716;BME280;33476;50.984;3.538;2023-02-12T14:50:05;103821.31;;;11.29;51.21
47716;BME280;33476;50.984;3.538;2023-02-12T14:52:36;103817.78;;;11.37;51.42
47716;BME280;33476;50.984;3.538;2023-02-12T14:55:04;103814.25;;;11.46;51.01
47716;BME280;33476;50.984;3.538;2023-02-12T15:02:39;103813.38;;;11.51;50.64
47716;BME280;33476;50.984;3.538;2023-02-12T15:05:18;103803.78;;;11.52;51.00
47716;BME280;33476;50.984;3.538;2023-02-12T15:07:50;103802.91;;;11.48;50.92
47716;BME280;33476;50.984;3.538;2023-02-12T15:10:50;103798.56;;;11.46;51.43
47716;BME280;33476;50.984;3.538;2023-02-12T15:13:26;103799.41;;;11.52;51.36
47716;BME280;33476;50.984;3.538;2023-02-12T15:16:01;103803.75;;;11.57;51.64
47716;BME280;33476;50.984;3.538;2023-02-12T15:18:40;103803.75;;;11.49;51.55
47716;BME280;33476;50.984;3.538;2023-02-12T15:21:18;103794.22;;;11.43;51.62
47716;BME280;33476;50.984;3.538;2023-02-12T15:23:47;103789.84;;;11.42;51.43
47716;BME280;33476;50.984;3.538;2023-02-12T15:26:22;103787.25;;;11.38;51.50